createdAt,value
2022-12-19T00:01:40.272Z,74.31
2022-12-19T00:04:12.271Z,77.96
2022-12-19T00:06:43.356Z,76.92
2022-12-19T00:09:11.153Z,75.32
2022-12-19T00:11:39.367Z,75.77
2022-12-19T00:14:07.308Z,75.54
2022-12-19T00:16:34.706Z,75.23
2022-12-19T00:19:02.776Z,76.03
2022-12-19T00:21:34.687Z,75.89
2022-12-19T00:24:03.287Z,74.32
2022-12-19T00:26:34.823Z,72.64
2022-12-19T00:29:04.473Z,72.50
2022-12-19T00:31:37.151Z,75.52
2022-12-19T00:34:04.942Z,74.52
2022-12-19T00:36:35.232Z,74.85
2022-12-19T00:39:08.225Z,76.40
2022-12-19T00:41:39.419Z,75.25
2022-12-19T00:44:20.338Z,77.17
2022-12-19T00:46:52.749Z,74.29
2022-12-19T00:49:20.862Z,73.51
2022-12-19T00:51:49.671Z,74.21
2022-12-19T00:54:17.112Z,76.68
2022-12-19T00:56:45.221Z,75.42
2022-12-19T00:59:12.663Z,74.32
2022-12-19T01:01:42.327Z,74.40
2022-12-19T01:04:30.332Z,72.68
2022-12-19T01:07:02.751Z,74.15
2022-12-19T01:09:30.779Z,72.96
2022-12-19T01:12:15.835Z,74.19
2022-12-19T01:14:43.387Z,74.88
2022-12-19T01:17:10.935Z,73.36
2022-12-19T01:19:43.628Z,73.60
2022-12-19T01:22:13.626Z,74.46
2022-12-19T01:24:41.592Z,74.45
2022-12-19T01:27:09.160Z,74.50
2022-12-19T01:29:37.650Z,76.53
2022-12-19T01:32:20.179Z,76.89
2022-12-19T01:34:47.712Z,74.74
2022-12-19T01:37:19.493Z,73.41
2022-12-19T01:39:47.522Z,74.85
2022-12-19T01:42:17.677Z,76.94
2022-12-19T01:45:33.957Z,74.68
2022-12-19T01:48:12.170Z,75.95
2022-12-19T01:50:51.441Z,74.56
2022-12-19T01:53:29.885Z,74.62
2022-12-19T01:55:57.399Z,74.08
2022-12-19T01:58:24.959Z,73.80
2022-12-19T02:00:52.535Z,73.53
2022-12-19T02:03:23.515Z,73.14
2022-12-19T02:05:52.276Z,73.60
2022-12-19T02:08:20.258Z,72.51
2022-12-19T02:10:49.778Z,74.05
2022-12-19T02:13:17.719Z,73.48
2022-12-19T02:15:54.669Z,72.30
2022-12-19T02:18:35.708Z,72.85
2022-12-19T02:21:22.538Z,72.40
2022-12-19T02:24:13.321Z,72.01
2022-12-19T02:27:01.143Z,72.66
2022-12-19T02:29:53.131Z,73.01
2022-12-19T02:32:32.284Z,72.03
2022-12-19T02:35:12.427Z,73.09
2022-12-19T02:37:52.794Z,73.73
2022-12-19T02:40:29.359Z,72.45
2022-12-19T02:43:03.087Z,73.09
2022-12-19T02:45:38.384Z,73.84
2022-12-19T02:48:19.267Z,71.89
2022-12-19T02:50:50.528Z,72.46
2022-12-19T02:53:23.999Z,71.84
2022-12-19T02:56:19.362Z,71.98
2022-12-19T02:59:01.736Z,71.35
2022-12-19T03:01:41.346Z,70.75
2022-12-19T03:04:19.855Z,71.66
2022-12-19T03:07:00.756Z,71.60
2022-12-19T03:09:48.224Z,72.92
2022-12-19T03:12:25.352Z,71.82
2022-12-19T03:15:02.159Z,71.68
2022-12-19T03:17:30.659Z,72.46
2022-12-19T03:20:00.364Z,72.55
2022-12-19T03:22:28.950Z,72.71
2022-12-19T03:24:57.539Z,72.13
2022-12-19T03:27:30.943Z,71.72
2022-12-19T03:30:05.130Z,71.95
2022-12-19T03:32:35.257Z,72.19
2022-12-19T03:35:09.350Z,72.03
2022-12-19T03:37:44.193Z,71.91
2022-12-19T03:40:17.990Z,71.88
2022-12-19T03:43:08.203Z,71.78
2022-12-19T03:45:49.505Z,71.24
2022-12-19T03:48:25.852Z,73.24
2022-12-19T03:51:24.637Z,71.21
2022-12-19T03:54:00.709Z,70.79
2022-12-19T03:56:36.874Z,72.13
2022-12-19T03:59:17.323Z,72.73
2022-12-19T04:01:54.366Z,71.61
2022-12-19T04:04:24.851Z,72.45
2022-12-19T04:07:00.602Z,74.00
2022-12-19T04:09:31.605Z,72.16
2022-12-19T04:12:13.091Z,73.32
2022-12-19T04:14:47.971Z,72.77
2022-12-19T04:17:25.720Z,72.79
2022-12-19T04:20:08.555Z,72.42
2022-12-19T04:22:41.766Z,71.80
2022-12-19T04:25:16.625Z,70.69
2022-12-19T04:27:49.797Z,71.13
2022-12-19T04:30:24.002Z,71.44
2022-12-19T04:32:52.690Z,73.73
2022-12-19T04:35:24.046Z,71.27
2022-12-19T04:38:00.709Z,71.75
2022-12-19T04:40:30.130Z,70.32
2022-12-19T04:42:58.391Z,71.28
2022-12-19T04:45:37.522Z,71.87
2022-12-19T04:48:12.719Z,71.84
2022-12-19T04:50:42.979Z,72.89
2022-12-19T04:53:15.544Z,71.78
2022-12-19T04:55:45.580Z,72.17
2022-12-19T04:58:23.053Z,71.40
2022-12-19T05:00:54.110Z,71.13
2022-12-19T05:03:22.751Z,71.25
2022-12-19T05:05:57.012Z,70.10
2022-12-19T05:08:25.784Z,70.20
2022-12-19T05:10:53.226Z,71.07
2022-12-19T05:13:20.666Z,70.41
2022-12-19T05:15:56.901Z,71.39
2022-12-19T05:18:24.353Z,70.59
2022-12-19T05:20:52.082Z,71.49
2022-12-19T05:23:20.106Z,71.78
2022-12-19T05:25:49.085Z,71.98
2022-12-19T05:28:17.758Z,70.71
2022-12-19T05:30:50.602Z,70.83
2022-12-19T05:33:19.630Z,71.62
2022-12-19T05:35:49.374Z,71.38
2022-12-19T05:38:16.776Z,72.78
2022-12-19T05:40:44.209Z,73.39
2022-12-19T05:43:12.999Z,72.35
2022-12-19T05:45:40.968Z,71.63
2022-12-19T05:48:08.675Z,71.77
2022-12-19T05:50:37.281Z,69.91
2022-12-19T05:53:04.713Z,71.86
2022-12-19T05:55:32.532Z,71.28
2022-12-19T05:57:59.931Z,70.93
2022-12-19T06:00:28.704Z,71.22
2022-12-19T06:02:56.213Z,70.51
2022-12-19T06:05:23.770Z,72.40
2022-12-19T06:07:51.229Z,71.02
2022-12-19T06:10:18.766Z,69.79
2022-12-19T06:12:46.302Z,70.89
2022-12-19T06:15:13.748Z,70.93
2022-12-19T06:17:42.515Z,72.02
2022-12-19T06:20:11.246Z,71.90
2022-12-19T06:22:38.735Z,70.18
2022-12-19T06:25:07.723Z,71.14
2022-12-19T06:27:35.167Z,70.69
2022-12-19T06:30:02.677Z,71.30
2022-12-19T06:32:33.543Z,71.65
2022-12-19T06:35:07.563Z,73.13
2022-12-19T06:37:38.925Z,72.02
2022-12-19T06:40:08.230Z,71.80
2022-12-19T06:42:34.746Z,72.62
2022-12-19T06:45:02.299Z,71.75
2022-12-19T06:47:29.771Z,70.86
2022-12-19T06:49:57.252Z,71.43
2022-12-19T06:52:26.056Z,71.43
2022-12-19T06:54:53.815Z,71.21
2022-12-19T06:57:21.278Z,70.58
2022-12-19T06:59:48.762Z,70.47
2022-12-19T07:02:27.675Z,70.54
2022-12-19T07:05:00.950Z,70.21
2022-12-19T07:07:30.653Z,69.99
2022-12-19T07:09:58.562Z,69.51
2022-12-19T07:12:27.236Z,69.73
2022-12-19T07:14:54.662Z,69.65
2022-12-19T07:17:24.043Z,69.85
2022-12-19T07:19:51.800Z,69.57
2022-12-19T07:22:19.396Z,68.72
2022-12-19T07:24:48.417Z,70.52
2022-12-19T07:27:15.982Z,68.99
2022-12-19T07:29:43.543Z,70.14
2022-12-19T07:32:10.978Z,69.10
2022-12-19T07:34:38.444Z,68.33
2022-12-19T07:37:06.812Z,69.34
2022-12-19T07:39:34.254Z,68.15
2022-12-19T07:42:02.981Z,68.73
2022-12-19T07:44:30.449Z,68.62
2022-12-19T07:46:58.746Z,68.65
2022-12-19T07:49:26.233Z,68.78
2022-12-19T07:51:53.765Z,68.27
2022-12-19T07:54:21.342Z,69.79
2022-12-19T07:56:48.819Z,71.83
2022-12-19T07:59:17.581Z,69.51
2022-12-19T08:01:45.339Z,69.50
2022-12-19T08:04:13.188Z,70.03
2022-12-19T08:06:41.540Z,70.09
2022-12-19T08:09:09.251Z,68.53
2022-12-19T08:11:36.764Z,69.43
2022-12-19T08:14:04.449Z,68.01
2022-12-19T08:16:43.905Z,68.97
2022-12-19T08:19:17.100Z,68.26
2022-12-19T08:21:44.751Z,69.29
2022-12-19T08:24:12.310Z,67.72
2022-12-19T08:26:44.544Z,69.07
2022-12-19T08:29:14.931Z,68.17
2022-12-19T08:31:43.762Z,67.46
2022-12-19T08:34:11.176Z,67.26
2022-12-19T08:36:39.466Z,68.16
2022-12-19T08:39:06.934Z,67.22
2022-12-19T08:41:34.405Z,66.42
2022-12-19T08:44:02.152Z,67.20
2022-12-19T08:46:30.107Z,66.79
2022-12-19T08:48:59.564Z,67.73
2022-12-19T08:51:27.647Z,67.70
2022-12-19T08:53:55.094Z,66.91
2022-12-19T08:56:23.118Z,66.67
2022-12-19T08:58:52.488Z,66.80
2022-12-19T09:01:23.919Z,65.95
2022-12-19T09:04:12.987Z,68.01
2022-12-19T09:06:40.572Z,67.09
2022-12-19T09:09:08.049Z,68.06
2022-12-19T09:11:46.705Z,67.14
2022-12-19T09:14:21.335Z,66.93
2022-12-19T09:16:49.519Z,66.01
2022-12-19T09:19:18.072Z,66.26
2022-12-19T09:21:46.864Z,67.42
2022-12-19T09:24:14.648Z,65.91
2022-12-19T09:26:44.117Z,66.10
2022-12-19T09:29:19.924Z,65.61
2022-12-19T09:31:50.406Z,64.70
2022-12-19T09:34:24.811Z,65.62
2022-12-19T09:36:56.189Z,66.07
2022-12-19T09:39:23.615Z,66.16
2022-12-19T09:42:07.145Z,65.41
2022-12-19T09:44:57.102Z,66.46
2022-12-19T09:47:27.870Z,65.53
2022-12-19T09:49:55.757Z,65.42
2022-12-19T09:52:31.511Z,64.82
2022-12-19T09:55:04.609Z,65.37
2022-12-19T09:57:47.982Z,65.42
2022-12-19T10:00:19.608Z,65.05
2022-12-19T10:02:51.570Z,64.25
2022-12-19T10:05:49.598Z,63.62
2022-12-19T10:08:18.756Z,64.68
2022-12-19T10:12:40.651Z,64.00
2022-12-19T10:14:01.642Z,63.99
2022-12-19T10:16:37.273Z,64.02
2022-12-19T10:19:08.210Z,63.89
2022-12-19T10:22:16.277Z,63.84
2022-12-19T10:24:51.965Z,64.08
2022-12-19T10:27:58.578Z,63.37
2022-12-19T10:30:28.336Z,63.87
2022-12-19T10:33:06.719Z,63.25
2022-12-19T10:35:43.373Z,63.22
2022-12-19T10:38:22.230Z,64.99
2022-12-19T10:40:56.363Z,64.43
2022-12-19T10:43:35.650Z,64.13
2022-12-19T10:46:18.509Z,63.37
2022-12-19T10:48:46.189Z,63.88
2022-12-19T10:51:14.789Z,63.18
2022-12-19T10:53:42.329Z,63.87
2022-12-19T10:56:22.851Z,63.21
2022-12-19T10:58:57.253Z,61.61
2022-12-19T11:01:28.260Z,62.31
2022-12-19T11:04:15.573Z,63.07
2022-12-19T11:06:48.275Z,64.38
2022-12-19T11:09:25.007Z,64.13
2022-12-19T11:17:06.996Z,63.88
2022-12-19T11:18:11.661Z,63.36
2022-12-19T11:25:00.087Z,65.02
2022-12-19T11:29:30.270Z,65.37
2022-12-19T11:29:43.950Z,66.24
2022-12-19T11:30:36.278Z,68.91
2022-12-19T11:30:36.553Z,68.78
2022-12-19T11:32:31.465Z,69.37
2022-12-19T11:34:36.001Z,69.05
2022-12-19T11:37:14.242Z,69.92
2022-12-19T11:39:46.589Z,70.25
2022-12-19T11:42:22.168Z,70.23
2022-12-19T11:44:59.087Z,70.03
2022-12-19T11:47:34.797Z,70.53
2022-12-19T11:50:05.701Z,70.85
2022-12-19T11:55:40.530Z,72.92
2022-12-19T11:58:11.030Z,75.21
2022-12-19T12:00:45.747Z,73.10
2022-12-19T12:03:57.026Z,76.16
2022-12-19T12:06:34.810Z,75.69
2022-12-19T12:11:46.641Z,74.10
2022-12-19T12:22:29.119Z,76.37
2022-12-19T12:25:48.652Z,76.69
2022-12-19T12:31:06.986Z,76.26
2022-12-19T12:31:26.890Z,76.86
2022-12-19T12:31:52.739Z,78.93
2022-12-19T12:31:57.583Z,80.86
2022-12-19T12:32:00.976Z,81.09
2022-12-19T12:35:35.107Z,79.00
2022-12-19T12:37:52.421Z,80.00
2022-12-19T12:39:21.931Z,81.48
2022-12-19T12:42:07.038Z,80.96
2022-12-19T12:44:41.372Z,80.88
2022-12-19T12:47:18.235Z,82.13
2022-12-19T12:49:51.238Z,81.88
2022-12-19T12:52:22.763Z,82.55
2022-12-19T12:54:51.417Z,83.79
2022-12-19T12:57:21.960Z,87.30
2022-12-19T13:00:21.529Z,84.91
2022-12-19T13:02:53.976Z,84.16
2022-12-19T13:05:35.377Z,85.71
2022-12-19T13:08:23.214Z,86.67
2022-12-19T13:10:55.280Z,88.30
2022-12-19T13:13:50.650Z,87.12
2022-12-19T13:16:53.324Z,85.21
2022-12-19T13:19:28.436Z,87.11
2022-12-19T13:22:20.496Z,86.09
2022-12-19T13:24:50.983Z,85.30
2022-12-19T13:27:40.560Z,87.23
2022-12-19T13:30:17.282Z,89.18
2022-12-19T13:33:10.939Z,89.00
2022-12-19T13:39:10.706Z,87.93
2022-12-19T13:40:01.199Z,88.19
2022-12-19T13:41:48.734Z,87.36
2022-12-19T13:44:20.561Z,88.69
2022-12-19T13:46:48.068Z,88.24
2022-12-19T13:49:20.782Z,89.74
2022-12-19T13:51:50.555Z,88.38
2022-12-19T13:54:24.756Z,90.05
2022-12-19T13:56:53.984Z,89.25
2022-12-19T13:59:23.561Z,88.49
2022-12-19T14:01:53.761Z,88.55
2022-12-19T14:04:30.250Z,88.39
2022-12-19T14:07:01.267Z,89.70
2022-12-19T14:11:28.011Z,88.67
2022-12-19T14:13:44.070Z,87.73
2022-12-19T14:15:30.309Z,88.04
2022-12-19T14:18:43.433Z,88.41
2022-12-19T14:22:01.852Z,88.89
2022-12-19T14:23:44.101Z,88.72
2022-12-19T14:28:20.805Z,88.44
2022-12-19T14:29:09.455Z,88.91
2022-12-19T14:31:39.712Z,89.16
2022-12-19T14:35:46.535Z,88.50
2022-12-19T14:37:54.277Z,88.62
2022-12-19T14:40:25.740Z,88.39
2022-12-19T14:43:56.741Z,87.97
2022-12-19T14:54:16.320Z,92.36
2022-12-19T14:54:16.320Z,88.61
2022-12-19T14:54:34.135Z,92.70
2022-12-19T14:56:13.044Z,90.88
2022-12-19T14:58:54.982Z,91.05
2022-12-19T15:01:24.218Z,91.58
2022-12-19T15:04:53.081Z,89.45
2022-12-19T15:07:07.385Z,90.58
2022-12-19T15:11:07.821Z,91.16
2022-12-19T15:14:51.164Z,91.08
2022-12-19T15:15:45.362Z,91.91
2022-12-19T15:18:22.444Z,96.00
2022-12-19T15:20:50.499Z,95.50
2022-12-19T15:23:22.391Z,94.67
2022-12-19T15:26:07.997Z,97.04
2022-12-19T15:28:40.108Z,97.31
2022-12-19T15:31:29.746Z,96.30
2022-12-19T15:34:33.179Z,93.40
2022-12-19T15:36:45.254Z,94.45
2022-12-19T15:39:13.453Z,93.61
2022-12-19T15:41:40.886Z,92.80
2022-12-19T15:44:10.786Z,96.15
2022-12-19T15:46:44.725Z,94.43
2022-12-19T15:49:17.077Z,92.69
2022-12-19T15:51:44.772Z,92.81
2022-12-19T15:56:59.776Z,92.89
2022-12-19T15:59:37.509Z,90.35
2022-12-19T16:02:16.938Z,94.36
2022-12-19T16:04:45.755Z,95.93
2022-12-19T16:07:16.060Z,95.01
2022-12-19T16:09:43.580Z,95.23
2022-12-19T16:12:15.786Z,93.01
2022-12-19T16:14:43.647Z,92.65
2022-12-19T16:17:18.949Z,93.51
2022-12-19T16:19:46.408Z,92.58
2022-12-19T16:22:19.389Z,94.13
2022-12-19T16:24:46.967Z,92.92
2022-12-19T16:27:22.688Z,93.09
2022-12-19T16:29:50.663Z,93.44
2022-12-19T16:32:20.140Z,95.83
2022-12-19T16:34:48.930Z,93.18
2022-12-19T16:37:16.458Z,92.95
2022-12-19T16:39:43.895Z,92.16
2022-12-19T16:42:16.108Z,92.89
2022-12-19T16:44:46.067Z,91.80
2022-12-19T16:47:15.090Z,93.90
2022-12-19T16:49:44.527Z,93.78
2022-12-19T16:52:12.429Z,92.67
2022-12-19T16:54:40.273Z,91.94
2022-12-19T16:57:17.622Z,91.55
2022-12-19T16:59:45.135Z,92.12
2022-12-19T17:02:32.562Z,91.92
2022-12-19T17:05:01.444Z,91.07
2022-12-19T17:07:32.054Z,93.91
2022-12-19T17:09:59.543Z,93.20
2022-12-19T17:12:28.418Z,92.25
2022-12-19T17:14:55.973Z,92.41
2022-12-19T17:17:23.442Z,93.86
2022-12-19T17:19:50.911Z,94.70
2022-12-19T17:22:21.354Z,93.68
2022-12-19T17:24:50.143Z,92.43
2022-12-19T17:27:19.180Z,90.33
2022-12-19T17:29:47.106Z,90.50
2022-12-19T17:32:23.345Z,90.25
2022-12-19T17:34:51.797Z,90.77
2022-12-19T17:37:20.596Z,91.13
2022-12-19T17:39:48.821Z,91.71
2022-12-19T17:42:19.512Z,91.84
2022-12-19T17:44:46.963Z,92.25
2022-12-19T17:47:16.348Z,91.12
2022-12-19T17:49:44.365Z,92.25
2022-12-19T17:52:15.395Z,94.07
2022-12-19T17:54:44.488Z,100.00
2022-12-19T17:57:15.698Z,94.69
2022-12-19T17:59:43.434Z,90.04
2022-12-19T18:02:21.197Z,83.16
2022-12-19T18:04:48.804Z,82.28
2022-12-19T18:07:18.160Z,79.33
2022-12-19T18:09:47.128Z,83.18
2022-12-19T18:12:14.747Z,80.96
2022-12-19T18:14:42.359Z,78.93
2022-12-19T18:17:12.386Z,77.60
2022-12-19T18:19:40.245Z,78.78
2022-12-19T18:22:11.763Z,79.46
2022-12-19T18:24:39.303Z,81.23
2022-12-19T18:27:08.121Z,84.49
2022-12-19T18:29:35.893Z,87.04
2022-12-19T18:32:03.565Z,86.40
2022-12-19T18:34:34.235Z,87.43
2022-12-19T18:37:03.785Z,87.06
2022-12-19T18:39:32.068Z,87.79
2022-12-19T18:41:59.512Z,86.99
2022-12-19T18:44:28.277Z,87.04
2022-12-19T18:46:55.782Z,88.97
2022-12-19T18:49:23.777Z,90.61
2022-12-19T18:51:51.232Z,90.72
2022-12-19T18:54:20.639Z,92.42
2022-12-19T18:56:48.811Z,91.31
2022-12-19T18:59:16.241Z,91.78
2022-12-19T19:01:47.416Z,91.91
2022-12-19T19:04:18.093Z,91.22
2022-12-19T19:06:51.507Z,90.34
2022-12-19T19:09:21.974Z,90.43
2022-12-19T19:11:49.460Z,91.13
2022-12-19T19:14:16.990Z,90.78
2022-12-19T19:16:45.887Z,90.23
2022-12-19T19:19:17.529Z,91.77
2022-12-19T19:21:45.512Z,91.03
2022-12-19T19:24:15.825Z,91.89
2022-12-19T19:26:43.324Z,91.69
2022-12-19T19:29:13.465Z,91.67
2022-12-19T19:31:44.993Z,92.64
2022-12-19T19:34:19.420Z,94.94
2022-12-19T19:36:50.225Z,93.40
2022-12-19T19:39:19.779Z,92.50
2022-12-19T19:41:47.212Z,91.73
2022-12-19T19:44:14.795Z,92.58
2022-12-19T19:46:42.316Z,95.31
2022-12-19T19:49:09.856Z,94.88
2022-12-19T19:51:39.257Z,92.54
2022-12-19T19:54:06.778Z,93.23
2022-12-19T19:56:34.225Z,93.67
2022-12-19T19:59:01.733Z,93.87
2022-12-19T20:01:29.257Z,95.06
2022-12-19T20:03:56.987Z,93.53
2022-12-19T20:06:24.768Z,93.66
2022-12-19T20:08:53.528Z,94.92
2022-12-19T20:11:21.527Z,94.87
2022-12-19T20:13:49.181Z,93.94
2022-12-19T20:16:18.734Z,93.23
2022-12-19T20:18:49.284Z,94.04
2022-12-19T20:21:17.143Z,94.37
2022-12-19T20:23:45.129Z,94.19
2022-12-19T20:26:16.202Z,92.78
2022-12-19T20:28:49.104Z,92.40
2022-12-19T20:31:17.679Z,92.92
2022-12-19T20:33:46.217Z,92.02
2022-12-19T20:36:13.920Z,92.74
2022-12-19T20:38:41.616Z,92.49
2022-12-19T20:41:09.708Z,92.69
2022-12-19T20:43:38.970Z,93.52
2022-12-19T20:46:08.538Z,91.99
2022-12-19T20:48:36.584Z,90.76
2022-12-19T20:51:05.162Z,91.91
2022-12-19T20:53:33.282Z,97.96
2022-12-19T20:56:02.137Z,96.85
2022-12-19T20:58:31.570Z,94.26
2022-12-19T21:01:06.233Z,95.13
2022-12-19T21:03:34.144Z,94.61
2022-12-19T21:06:02.008Z,97.57
2022-12-19T21:08:29.988Z,98.28
2022-12-19T21:10:57.600Z,95.09
2022-12-19T21:13:25.135Z,93.33
2022-12-19T21:15:53.854Z,94.68
2022-12-19T21:18:22.972Z,92.40
2022-12-19T21:20:53.134Z,91.65
2022-12-19T21:23:21.127Z,91.28
2022-12-19T21:25:49.274Z,91.47
2022-12-19T21:28:16.776Z,90.29
2022-12-19T21:30:44.589Z,91.23
2022-12-19T21:33:12.216Z,91.32
2022-12-19T21:35:40.989Z,90.26
2022-12-19T21:38:08.407Z,91.37
2022-12-19T21:40:37.418Z,92.23
2022-12-19T21:43:11.495Z,91.95
2022-12-19T21:45:40.076Z,92.99
2022-12-19T21:48:08.090Z,92.34
2022-12-19T21:50:36.516Z,90.78
2022-12-19T21:53:05.353Z,90.34
2022-12-19T21:55:32.888Z,93.19
2022-12-19T21:58:00.432Z,92.05
2022-12-19T22:00:28.745Z,89.68
2022-12-19T22:03:13.291Z,89.31
2022-12-19T22:05:41.832Z,89.92
2022-12-19T22:08:11.903Z,89.80
2022-12-19T22:10:40.677Z,88.73
2022-12-19T22:13:08.142Z,88.85
2022-12-19T22:15:36.552Z,88.66
2022-12-19T22:18:04.382Z,89.24
2022-12-19T22:20:32.095Z,88.59
2022-12-19T22:22:59.823Z,89.32
2022-12-19T22:25:28.725Z,87.90
2022-12-19T22:27:56.479Z,88.78
2022-12-19T22:30:24.088Z,88.91
2022-12-19T22:32:51.579Z,89.00
2022-12-19T22:35:19.805Z,88.83
2022-12-19T22:37:47.452Z,93.88
2022-12-19T22:40:15.203Z,94.62
2022-12-19T22:42:44.172Z,92.13
2022-12-19T22:45:12.319Z,89.40
2022-12-19T22:47:42.564Z,88.42
2022-12-19T22:50:11.460Z,89.31
2022-12-19T22:52:40.280Z,87.20
2022-12-19T22:55:08.750Z,91.21
2022-12-19T22:57:36.352Z,88.56
2022-12-19T23:00:07.458Z,88.74
2022-12-19T23:02:35.473Z,87.50
2022-12-19T23:05:03.151Z,88.48
2022-12-19T23:07:30.991Z,90.40
2022-12-19T23:09:58.551Z,88.30
2022-12-19T23:12:26.677Z,90.51
2022-12-19T23:14:54.355Z,89.37
2022-12-19T23:17:23.666Z,88.31
2022-12-19T23:19:51.245Z,87.27
2022-12-19T23:22:18.804Z,88.75
2022-12-19T23:24:46.674Z,87.21
2022-12-19T23:27:14.301Z,86.13
2022-12-19T23:29:43.586Z,88.33
2022-12-19T23:32:11.704Z,88.26
2022-12-19T23:34:40.639Z,86.97
2022-12-19T23:37:11.201Z,87.01
2022-12-19T23:39:39.615Z,86.45
2022-12-19T23:42:07.039Z,86.49
2022-12-19T23:44:34.763Z,86.50
2022-12-19T23:47:03.836Z,87.78
2022-12-19T23:49:32.276Z,88.08
2022-12-19T23:52:01.097Z,87.75
2022-12-19T23:54:28.627Z,87.07
2022-12-19T23:56:56.121Z,88.11
2022-12-19T23:59:23.718Z,87.13
